Time;durP1;ratioP1;P1;durP2;ratioP2;P2;SDS_P1;SDS_P2;PMS_P1;PMS_P2;Temp;Humidity;BMP_temperature;BMP_pressure;BME280_temperature;BME280_humidity;BME280_pressure;Samples;Min_cycle;Max_cycle;Signal;HPM_P1;HPM_P2
2023/07/12 00:01:36;;;;;;;7.57;7.17;;;21.30;52.30;;;;;;4938575;29;20551;-50
2023/07/12 00:04:02;;;;;;;8.20;7.70;;;21.30;51.50;;;;;;4938246;29;20451;-53
2023/07/12 00:06:45;;;;;;;7.60;7.20;;;21.30;51.50;;;;;;4938446;29;20222;-55
2023/07/12 00:09:13;;;;;;;7.37;7.07;;;21.40;51.20;;;;;;4938128;29;20603;-55
2023/07/12 00:11:40;;;;;;;7.80;7.40;;;21.40;51.60;;;;;;4938330;29;20975;-56
2023/07/12 00:14:07;;;;;;;8.27;7.67;;;21.40;50.40;;;;;;4938227;29;20486;-54
2023/07/12 00:16:40;;;;;;;7.80;7.40;;;21.50;50.70;;;;;;4938395;29;20839;-55
2023/07/12 00:19:09;;;;;;;7.00;6.60;;;21.50;49.70;;;;;;4937850;29;20514;-55
2023/07/12 00:21:35;;;;;;;7.57;7.20;;;21.50;48.70;;;;;;4938164;29;20411;-54
2023/07/12 00:24:01;;;;;;;7.47;7.07;;;21.60;48.10;;;;;;4937778;29;20998;-52
2023/07/12 00:26:35;;;;;;;7.40;7.00;;;21.60;48.70;;;;;;4938055;29;20265;-53
2023/07/12 00:29:04;;;;;;;8.17;7.77;;;21.60;47.20;;;;;;4937690;29;20419;-56
2023/07/12 00:31:29;;;;;;;7.63;7.17;;;21.70;46.70;;;;;;4938002;29;20473;-53
2023/07/12 00:33:56;;;;;;;7.70;7.40;;;21.70;45.50;;;;;;4937837;29;20517;-52
2023/07/12 00:36:23;;;;;;;7.13;6.73;;;21.80;44.80;;;;;;4937901;29;20183;-52
2023/07/12 00:38:49;;;;;;;7.53;7.23;;;21.80;44.10;;;;;;4953537;29;20478;-53
2023/07/12 00:41:50;;;;;;;8.07;7.67;;;21.80;43.90;;;;;;4942544;28;20434;-56
2023/07/12 00:44:26;;;;;;;7.93;7.63;;;21.90;44.60;;;;;;4920590;29;20478;-51
2023/07/12 00:46:57;;;;;;;8.20;7.80;;;21.90;44.50;;;;;;4937710;29;20427;-54
2023/07/12 00:49:23;;;;;;;7.73;7.33;;;21.90;44.60;;;;;;4937333;29;20493;-53
2023/07/12 00:51:58;;;;;;;7.93;7.63;;;22.00;45.00;;;;;;4937440;29;20415;-55
2023/07/12 00:54:26;;;;;;;8.60;8.20;;;21.90;44.00;;;;;;4937464;29;20434;-53
2023/07/12 00:56:52;;;;;;;8.50;8.10;;;21.90;44.20;;;;;;4937323;29;20446;-55
2023/07/12 00:59:29;;;;;;;8.27;7.77;;;21.80;44.20;;;;;;4937205;29;20450;-53
2023/07/12 01:01:59;;;;;;;8.00;7.60;;;21.80;44.90;;;;;;4937373;29;20267;-52
2023/07/12 01:04:29;;;;;;;8.40;7.90;;;21.80;45.30;;;;;;4937275;29;20463;-55
2023/07/12 01:06:55;;;;;;;8.60;8.10;;;21.80;45.10;;;;;;4937126;29;20524;-53
2023/07/12 01:09:21;;;;;;;7.40;7.10;;;21.80;45.40;;;;;;4937126;29;20682;-54
2023/07/12 01:11:48;;;;;;;7.67;7.33;;;21.80;45.10;;;;;;4937246;29;20171;-56
2023/07/12 01:14:17;;;;;;;8.07;7.67;;;21.80;45.20;;;;;;4937235;29;20433;-51
2023/07/12 01:16:47;;;;;;;7.90;7.60;;;21.70;44.60;;;;;;4937159;29;20454;-53
2023/07/12 01:19:13;;;;;;;8.20;7.80;;;21.80;45.00;;;;;;4936923;29;20439;-50
2023/07/12 01:21:44;;;;;;;8.10;7.80;;;21.80;44.50;;;;;;4937004;29;20955;-57
2023/07/12 01:24:10;;;;;;;7.50;7.20;;;21.90;45.80;;;;;;4954104;29;20557;-53
2023/07/12 01:26:41;;;;;;;8.00;7.40;;;22.00;45.90;;;;;;4936914;29;20498;-54
2023/07/12 01:29:07;;;;;;;7.90;7.40;;;22.10;46.00;;;;;;4936771;29;20557;-55
2023/07/12 01:31:34;;;;;;;7.53;7.20;;;22.30;46.00;;;;;;4936906;29;20457;-54
2023/07/12 01:33:59;;;;;;;7.57;7.27;;;22.30;44.10;;;;;;4936886;29;20419;-54
2023/07/12 01:36:26;;;;;;;8.67;8.17;;;22.40;42.80;;;;;;4936792;29;20471;-56
2023/07/12 01:38:55;;;;;;;8.73;8.23;;;22.30;43.30;;;;;;4936614;29;20176;-55
2023/07/12 01:41:21;;;;;;;8.43;8.00;;;22.20;44.00;;;;;;4936733;29;20450;-53
2023/07/12 01:43:47;;;;;;;9.20;8.50;;;22.00;44.80;;;;;;4936771;29;20813;-54
2023/07/12 01:46:13;;;;;;;8.50;8.03;;;22.00;45.20;;;;;;4936738;29;20429;-55
2023/07/12 01:48:39;;;;;;;8.83;8.10;;;22.10;47.10;;;;;;4936239;29;20274;-53
2023/07/12 01:51:05;;;;;;;8.43;7.93;;;22.00;46.90;;;;;;4936745;29;20503;-54
2023/07/12 01:53:31;;;;;;;7.60;7.23;;;21.90;47.70;;;;;;4936770;29;20175;-56
2023/07/12 01:55:58;;;;;;;7.83;7.40;;;21.90;48.30;;;;;;4936640;29;20426;-54
2023/07/12 01:58:24;;;;;;;7.60;7.30;;;21.90;48.00;;;;;;4936544;29;20411;-51
2023/07/12 02:00:50;;;;;;;7.57;7.27;;;22.00;48.20;;;;;;4936499;29;20411;-55
2023/07/12 02:03:16;;;;;;;8.23;7.80;;;22.00;48.40;;;;;;4936718;29;20590;-57
2023/07/12 02:05:43;;;;;;;8.13;7.73;;;21.90;46.30;;;;;;4936496;29;20467;-51
2023/07/12 02:08:09;;;;;;;8.10;7.50;;;21.90;45.80;;;;;;4936455;29;20946;-56
2023/07/12 02:10:35;;;;;;;8.47;8.07;;;21.90;45.20;;;;;;4953769;29;20745;-53
2023/07/12 02:13:01;;;;;;;8.00;7.40;;;21.90;44.00;;;;;;4936528;29;20558;-56
2023/07/12 02:15:27;;;;;;;8.90;8.13;;;22.00;44.30;;;;;;4936514;29;20287;-54
2023/07/12 02:17:53;;;;;;;7.80;7.30;;;22.00;46.00;;;;;;4936164;29;20599;-47
2023/07/12 02:20:19;;;;;;;8.77;8.07;;;21.90;46.30;;;;;;4936387;29;20545;-50
2023/07/12 02:22:46;;;;;;;8.70;8.30;;;21.80;46.00;;;;;;4936471;29;20190;-50
2023/07/12 02:25:13;;;;;;;9.13;8.60;;;21.80;46.60;;;;;;4936345;29;20880;-50
2023/07/12 02:27:39;;;;;;;8.50;8.10;;;21.80;46.50;;;;;;4936371;29;20501;-52
2023/07/12 02:30:07;;;;;;;8.30;7.90;;;21.80;45.60;;;;;;4936175;29;20577;-49
2023/07/12 02:32:32;;;;;;;9.13;8.53;;;21.70;46.20;;;;;;4936367;29;20784;-48
2023/07/12 02:34:58;;;;;;;8.20;7.70;;;21.70;46.40;;;;;;4936338;29;20423;-44
2023/07/12 02:37:24;;;;;;;8.50;7.90;;;21.60;46.40;;;;;;4936418;29;20207;-48
2023/07/12 02:39:49;;;;;;;8.27;7.77;;;21.70;48.00;;;;;;4920438;29;20206;-46
2023/07/12 02:42:15;;;;;;;8.67;8.17;;;21.70;47.20;;;;;;4952143;29;20238;-48
2023/07/12 02:44:40;;;;;;;8.70;8.20;;;21.70;45.90;;;;;;4936294;29;20298;-48
2023/07/12 02:47:07;;;;;;;7.90;7.30;;;21.70;46.90;;;;;;4936119;29;20182;-44
2023/07/12 02:49:33;;;;;;;8.90;8.30;;;21.70;47.10;;;;;;4936077;29;20201;-47
2023/07/12 02:51:59;;;;;;;8.63;7.90;;;21.70;47.40;;;;;;4953276;29;20414;-51
2023/07/12 02:54:25;;;;;;;7.53;7.03;;;21.70;46.90;;;;;;4952419;29;20482;-46
2023/07/12 02:56:50;;;;;;;8.03;7.63;;;21.70;47.70;;;;;;4936378;29;20242;-44
2023/07/12 02:59:16;;;;;;;7.77;7.37;;;21.60;46.80;;;;;;4952596;28;20183;-45
2023/07/12 03:01:43;;;;;;;8.47;7.80;;;21.60;48.30;;;;;;4923782;29;20556;-44
2023/07/12 03:04:09;;;;;;;8.67;8.07;;;21.60;46.70;;;;;;4939396;29;20466;-44
2023/07/12 03:06:35;;;;;;;8.73;8.03;;;21.60;46.90;;;;;;4939492;29;20434;-46
2023/07/12 03:09:04;;;;;;;8.03;7.63;;;21.60;46.80;;;;;;4939267;29;20178;-49
2023/07/12 03:11:29;;;;;;;9.13;8.63;;;21.50;46.90;;;;;;4939448;29;20222;-44
2023/07/12 03:13:55;;;;;;;9.40;8.63;;;21.50;47.20;;;;;;4939295;29;20415;-46
2023/07/12 03:16:21;;;;;;;9.07;8.57;;;21.40;47.40;;;;;;4939508;29;20179;-48
2023/07/12 03:18:46;;;;;;;8.70;8.30;;;21.50;47.70;;;;;;4938904;29;20195;-45
2023/07/12 03:21:12;;;;;;;8.73;8.20;;;21.40;46.60;;;;;;4939157;29;20598;-46
2023/07/12 03:23:38;;;;;;;8.20;7.80;;;21.40;46.60;;;;;;4939207;29;20187;-47
2023/07/12 03:26:03;;;;;;;9.20;8.63;;;21.40;46.60;;;;;;4939049;29;20625;-45
2023/07/12 03:28:29;;;;;;;8.53;7.93;;;21.40;46.50;;;;;;4938843;29;20223;-47
2023/07/12 03:30:58;;;;;;;9.13;8.40;;;21.40;46.20;;;;;;4939361;29;20655;-49
2023/07/12 03:33:23;;;;;;;8.37;7.70;;;21.40;46.20;;;;;;4939010;29;20322;-47
2023/07/12 03:35:50;;;;;;;9.43;8.60;;;21.40;46.00;;;;;;4939106;29;20955;-49
2023/07/12 03:38:16;;;;;;;9.50;8.70;;;21.40;45.90;;;;;;4938696;29;20246;-54
2023/07/12 03:40:44;;;;;;;8.83;8.33;;;21.40;46.00;;;;;;4938899;29;20415;-53
2023/07/12 03:43:09;;;;;;;8.93;8.43;;;21.50;46.00;;;;;;4938635;29;20182;-56
2023/07/12 03:45:35;;;;;;;8.70;8.20;;;21.50;45.00;;;;;;4938738;29;20987;-52
2023/07/12 03:48:00;;;;;;;9.33;8.73;;;21.50;44.70;;;;;;4922580;29;20230;-55
2023/07/12 03:50:26;;;;;;;9.00;8.50;;;21.50;44.40;;;;;;4938758;29;20186;-52
2023/07/12 03:52:51;;;;;;;8.97;8.37;;;21.50;44.10;;;;;;4938634;29;20535;-51
2023/07/12 03:55:17;;;;;;;9.00;8.30;;;21.50;43.90;;;;;;4938810;29;20180;-55
2023/07/12 03:57:43;;;;;;;9.27;8.77;;;21.50;42.50;;;;;;4938601;29;20751;-56
2023/07/12 04:00:09;;;;;;;10.27;9.37;;;21.60;42.40;;;;;;4938303;29;20183;-55
2023/07/12 04:02:35;;;;;;;9.80;9.20;;;21.60;42.50;;;;;;4938304;29;20274;-53
2023/07/12 04:05:00;;;;;;;10.53;9.43;;;21.60;41.70;;;;;;4938410;29;20585;-56
2023/07/12 04:07:26;;;;;;;11.10;10.30;;;21.60;41.70;;;;;;4938381;29;20230;-53
2023/07/12 04:09:52;;;;;;;10.03;9.23;;;21.70;41.80;;;;;;4938172;28;20238;-52
2023/07/12 04:12:18;;;;;;;11.00;10.27;;;21.70;41.80;;;;;;4938011;29;20238;-55
2023/07/12 04:14:43;;;;;;;9.80;9.30;;;21.70;41.80;;;;;;4956214;28;20242;-52
2023/07/12 04:17:09;;;;;;;10.00;9.50;;;21.70;41.80;;;;;;4957407;28;20187;-54
2023/07/12 04:19:34;;;;;;;10.47;9.87;;;21.70;41.80;;;;;;4957425;28;20574;-52
2023/07/12 04:22:00;;;;;;;9.87;9.10;;;21.70;41.80;;;;;;4957671;28;20217;-51
2023/07/12 04:24:26;;;;;;;10.20;9.60;;;21.70;41.80;;;;;;4957572;28;20249;-50
2023/07/12 04:26:51;;;;;;;10.00;9.40;;;21.70;41.00;;;;;;4957557;28;20174;-56
2023/07/12 04:29:17;;;;;;;12.90;10.67;;;21.70;41.10;;;;;;4957282;28;20277;-54
2023/07/12 04:31:42;;;;;;;10.90;10.00;;;21.70;41.10;;;;;;4957509;28;20174;-55
2023/07/12 04:34:08;;;;;;;11.50;10.63;;;21.80;41.10;;;;;;4957328;28;20179;-53
2023/07/12 04:36:33;;;;;;;10.50;9.93;;;21.80;40.50;;;;;;4957518;28;20178;-53
2023/07/12 04:38:59;;;;;;;10.13;9.20;;;21.90;40.70;;;;;;4973154;28;20201;-53
2023/07/12 04:41:25;;;;;;;11.00;10.20;;;22.00;40.30;;;;;;4957329;28;20189;-53
2023/07/12 04:43:51;;;;;;;11.43;10.53;;;22.00;40.20;;;;;;4957167;28;20231;-51
2023/07/12 04:46:17;;;;;;;9.30;8.87;;;22.10;40.10;;;;;;4973452;28;20520;-51
2023/07/12 04:48:42;;;;;;;10.50;9.70;;;22.10;39.60;;;;;;4956976;28;20171;-54
2023/07/12 04:51:08;;;;;;;9.33;8.83;;;22.20;39.50;;;;;;4974569;28;20170;-54
2023/07/12 04:53:34;;;;;;;10.43;9.80;;;22.20;39.10;;;;;;4957133;28;20183;-55
2023/07/12 04:56:00;;;;;;;11.67;10.37;;;22.20;39.50;;;;;;4956941;28;20175;-50
2023/07/12 04:58:26;;;;;;;10.60;10.10;;;22.20;39.10;;;;;;4972974;28;20799;-52
2023/07/12 05:00:52;;;;;;;10.70;10.00;;;22.20;39.30;;;;;;4956978;28;20193;-52
2023/07/12 05:03:18;;;;;;;11.17;10.57;;;22.20;39.70;;;;;;4972781;28;20182;-54
2023/07/12 05:05:45;;;;;;;12.30;11.13;;;22.20;39.50;;;;;;4956641;28;20982;-55
2023/07/12 05:08:11;;;;;;;10.40;9.73;;;22.20;39.80;;;;;;4956548;28;20177;-52
2023/07/12 05:10:37;;;;;;;11.50;10.70;;;22.20;40.20;;;;;;4956811;28;20461;-56
2023/07/12 05:13:03;;;;;;;11.30;10.30;;;22.20;40.20;;;;;;4956680;28;20423;-56
2023/07/12 05:15:28;;;;;;;11.47;10.43;;;22.30;40.10;;;;;;4956542;28;20422;-49
2023/07/12 05:17:54;;;;;;;11.73;10.97;;;22.30;40.40;;;;;;4956259;28;20289;-47
2023/07/12 05:20:20;;;;;;;11.20;10.40;;;22.30;40.00;;;;;;4956605;28;20178;-45
2023/07/12 05:22:47;;;;;;;12.10;11.40;;;22.40;40.40;;;;;;4956048;28;20321;-47
2023/07/12 05:25:13;;;;;;;12.03;10.90;;;22.40;40.20;;;;;;4956410;28;20207;-48
2023/07/12 05:27:40;;;;;;;12.50;11.70;;;22.40;40.00;;;;;;4972500;28;20418;-46
2023/07/12 05:30:06;;;;;;;11.80;11.10;;;22.40;40.70;;;;;;4972207;28;20430;-51
2023/07/12 05:32:31;;;;;;;10.90;10.30;;;22.40;40.70;;;;;;4956377;28;20787;-47
2023/07/12 05:34:57;;;;;;;10.73;10.03;;;22.40;40.70;;;;;;4972480;28;20425;-49
2023/07/12 05:37:23;;;;;;;10.87;10.17;;;22.40;41.10;;;;;;4956508;28;20179;-51
2023/07/12 05:39:48;;;;;;;11.73;10.83;;;22.50;40.80;;;;;;4956187;28;20639;-45
2023/07/12 05:42:14;;;;;;;11.10;10.30;;;22.40;41.30;;;;;;4956393;28;20179;-51
2023/07/12 05:44:40;;;;;;;10.47;9.67;;;22.50;40.90;;;;;;4956234;28;20206;-55
2023/07/12 05:47:05;;;;;;;10.37;9.87;;;22.50;41.20;;;;;;4973845;28;20186;-50
2023/07/12 05:49:31;;;;;;;10.90;10.30;;;22.50;41.10;;;;;;4956068;28;20210;-52
2023/07/12 05:51:59;;;;;;;11.50;10.63;;;22.50;41.50;;;;;;4956133;28;20174;-46
2023/07/12 05:54:25;;;;;;;11.77;10.53;;;22.50;41.70;;;;;;4955940;28;20540;-43
2023/07/12 05:56:51;;;;;;;11.43;10.63;;;22.50;41.30;;;;;;4970936;28;20815;-46
2023/07/12 05:59:18;;;;;;;12.40;11.40;;;22.50;41.30;;;;;;4954342;28;20414;-45
2023/07/12 06:01:43;;;;;;;11.83;11.13;;;22.60;41.50;;;;;;4955996;28;20269;-50
2023/07/12 06:04:11;;;;;;;10.87;10.20;;;22.70;41.10;;;;;;4955982;28;20549;-48
2023/07/12 06:06:37;;;;;;;12.20;11.20;;;22.70;40.80;;;;;;4956073;28;20175;-47
2023/07/12 06:09:03;;;;;;;12.17;11.10;;;22.80;40.80;;;;;;4971592;28;20454;-46
2023/07/12 06:11:28;;;;;;;10.70;10.10;;;22.70;40.40;;;;;;4955642;28;20446;-48
2023/07/12 06:13:54;;;;;;;12.47;11.67;;;22.80;40.60;;;;;;4973127;28;20842;-47
2023/07/12 06:16:20;;;;;;;11.70;10.80;;;22.80;40.80;;;;;;4955668;28;20174;-47
2023/07/12 06:18:46;;;;;;;12.57;11.80;;;22.90;40.40;;;;;;4955491;28;20511;-45
2023/07/12 06:21:11;;;;;;;11.93;11.23;;;22.80;40.60;;;;;;4955529;28;20175;-49
2023/07/12 06:23:37;;;;;;;13.37;12.03;;;22.80;40.90;;;;;;4955584;28;20190;-46
2023/07/12 06:26:03;;;;;;;12.73;11.50;;;22.70;41.40;;;;;;4955555;28;20227;-45
2023/07/12 06:28:28;;;;;;;13.10;12.10;;;22.80;41.10;;;;;;4971430;28;20175;-45
2023/07/12 06:30:54;;;;;;;12.77;11.60;;;22.80;40.90;;;;;;4955417;28;20406;-45
2023/07/12 06:33:20;;;;;;;12.40;11.70;;;22.90;40.50;;;;;;4955955;28;20170;-46
2023/07/12 06:35:46;;;;;;;11.53;10.73;;;22.90;39.90;;;;;;4959122;28;20547;-45
2023/07/12 06:38:12;;;;;;;12.70;12.00;;;22.90;39.70;;;;;;4975009;28;20225;-44
2023/07/12 06:40:39;;;;;;;11.80;11.00;;;23.00;40.00;;;;;;4975170;28;20425;-45
2023/07/12 06:43:04;;;;;;;11.77;11.00;;;23.10;39.20;;;;;;4959033;28;20505;-43
2023/07/12 06:45:30;;;;;;;15.63;11.80;;;23.20;38.20;;;;;;4959321;28;20933;-42
2023/07/12 06:47:56;;;;;;;11.10;10.40;;;23.40;37.70;;;;;;4974922;28;20175;-46
2023/07/12 06:50:22;;;;;;;11.43;10.73;;;23.50;37.30;;;;;;4974858;28;20175;-50
2023/07/12 06:52:48;;;;;;;11.53;10.93;;;23.60;36.70;;;;;;4958883;28;20385;-47
2023/07/12 06:55:13;;;;;;;12.03;10.97;;;23.70;36.20;;;;;;4958821;28;20424;-45
2023/07/12 06:57:39;;;;;;;10.30;9.50;;;23.80;35.50;;;;;;4958641;28;20539;-46
2023/07/12 07:00:07;;;;;;;11.70;11.07;;;23.90;35.40;;;;;;4958444;28;20711;-49
2023/07/12 07:02:33;;;;;;;10.80;10.10;;;24.00;34.60;;;;;;4974565;28;20183;-47
2023/07/12 07:04:59;;;;;;;10.43;9.73;;;24.10;34.40;;;;;;4974754;28;20465;-49
2023/07/12 07:07:24;;;;;;;10.43;9.93;;;24.10;33.40;;;;;;4958480;28;20933;-47
2023/07/12 07:09:50;;;;;;;10.00;9.50;;;24.20;33.00;;;;;;4958251;28;20179;-49
2023/07/12 07:12:16;;;;;;;10.40;9.80;;;24.30;31.80;;;;;;4957868;28;20186;-49
2023/07/12 07:14:41;;;;;;;10.53;9.90;;;24.30;31.30;;;;;;4949594;29;20187;-47
2023/07/12 07:17:08;;;;;;;11.27;10.57;;;24.30;31.80;;;;;;4939068;29;20194;-49
2023/07/12 07:19:34;;;;;;;11.30;10.50;;;24.30;31.40;;;;;;4955907;29;20223;-45
2023/07/12 07:21:59;;;;;;;9.40;8.90;;;24.40;31.70;;;;;;4939011;29;20430;-45
2023/07/12 07:24:26;;;;;;;11.07;10.37;;;24.50;30.60;;;;;;4934471;29;20211;-47
2023/07/12 07:26:51;;;;;;;11.17;10.60;;;24.40;30.80;;;;;;4935757;29;20175;-47
2023/07/12 07:29:17;;;;;;;10.93;10.10;;;24.50;30.30;;;;;;4938693;29;20505;-49
2023/07/12 07:31:43;;;;;;;11.57;10.87;;;24.60;30.10;;;;;;4938827;29;20175;-46
2023/07/12 07:34:08;;;;;;;11.37;10.57;;;24.70;29.50;;;;;;4938640;29;20183;-49
2023/07/12 07:36:34;;;;;;;12.07;10.97;;;24.70;29.00;;;;;;4938861;29;20183;-52
2023/07/12 07:39:01;;;;;;;10.70;10.07;;;24.70;28.40;;;;;;4938404;29;20643;-48
2023/07/12 07:41:27;;;;;;;10.57;9.70;;;24.70;28.30;;;;;;4938665;29;20411;-45
2023/07/12 07:43:53;;;;;;;10.60;10.00;;;24.80;27.70;;;;;;4938425;29;20502;-48
2023/07/12 07:46:19;;;;;;;10.47;9.77;;;24.80;27.30;;;;;;4937995;29;20450;-47
2023/07/12 07:48:45;;;;;;;10.40;9.60;;;24.80;26.70;;;;;;4938384;29;20171;-48
2023/07/12 07:51:12;;;;;;;10.40;9.43;;;24.80;26.50;;;;;;4938744;29;20262;-54
2023/07/12 07:53:38;;;;;;;12.53;9.80;;;24.90;26.70;;;;;;4938400;29;20478;-54
2023/07/12 07:56:03;;;;;;;9.90;9.30;;;24.90;27.00;;;;;;4938332;29;20411;-52
2023/07/12 07:58:29;;;;;;;10.30;9.60;;;25.00;25.80;;;;;;4937766;29;20172;-54
2023/07/12 08:00:54;;;;;;;9.43;8.93;;;25.10;25.30;;;;;;4938229;29;20179;-54
2023/07/12 08:03:20;;;;;;;10.53;9.80;;;25.20;25.20;;;;;;4938222;29;20176;-54
2023/07/12 08:05:46;;;;;;;9.30;8.80;;;25.30;25.20;;;;;;4938165;29;20294;-55
2023/07/12 08:08:12;;;;;;;10.20;9.60;;;25.40;25.10;;;;;;4937737;29;20183;-53
2023/07/12 08:10:38;;;;;;;10.10;9.40;;;25.50;24.90;;;;;;4938090;29;20427;-52
2023/07/12 08:13:04;;;;;;;10.30;9.70;;;25.50;25.30;;;;;;4937923;29;20839;-54
2023/07/12 08:15:30;;;;;;;14.83;9.97;;;25.50;25.00;;;;;;4938014;29;20270;-52
2023/07/12 08:17:55;;;;;;;10.10;9.60;;;25.60;24.80;;;;;;4937581;29;20498;-52
2023/07/12 08:20:23;;;;;;;10.00;9.60;;;25.70;23.80;;;;;;4937838;29;20176;-55
2023/07/12 08:22:49;;;;;;;10.60;10.10;;;25.80;23.10;;;;;;4937772;29;20558;-53
2023/07/12 08:25:15;;;;;;;10.07;9.47;;;25.90;23.50;;;;;;4937659;29;20458;-52
2023/07/12 08:27:41;;;;;;;10.93;10.23;;;25.90;23.80;;;;;;4937442;29;20818;-52
2023/07/12 08:30:08;;;;;;;10.37;9.80;;;25.90;22.60;;;;;;4937435;29;20502;-53
2023/07/12 08:32:34;;;;;;;11.20;10.57;;;25.90;22.40;;;;;;4944128;29;20427;-52
2023/07/12 08:35:01;;;;;;;10.70;9.90;;;25.80;23.30;;;;;;4954754;29;20923;-54
2023/07/12 08:37:28;;;;;;;11.17;10.03;;;25.90;23.50;;;;;;4937585;29;20426;-54
2023/07/12 08:39:54;;;;;;;8.80;8.40;;;25.80;23.90;;;;;;4937124;29;20502;-54
2023/07/12 08:42:30;;;;;;;9.03;8.60;;;25.90;23.20;;;;;;4937527;29;20858;-51
2023/07/12 08:44:59;;;;;;;10.37;9.67;;;26.00;21.90;;;;;;4953207;29;20505;-51
2023/07/12 08:47:30;;;;;;;11.27;10.27;;;26.10;21.70;;;;;;4937485;29;20955;-50
2023/07/12 08:49:57;;;;;;;10.47;9.87;;;26.10;21.90;;;;;;4937090;29;20411;-48
2023/07/12 08:52:30;;;;;;;9.60;9.20;;;26.20;21.20;;;;;;4937557;29;20768;-48
2023/07/12 08:54:59;;;;;;;9.47;8.87;;;26.30;20.40;;;;;;4937174;29;20458;-55
2023/07/12 08:57:28;;;;;;;9.70;9.00;;;26.40;20.10;;;;;;4936609;29;20470;-54
2023/07/12 09:00:03;;;;;;;9.80;9.27;;;26.40;20.50;;;;;;4936831;29;20498;-53
2023/07/12 09:02:28;;;;;;;10.10;9.40;;;26.50;20.10;;;;;;4937177;29;20422;-55
2023/07/12 09:04:59;;;;;;;10.80;9.10;;;26.60;20.50;;;;;;4936936;29;20463;-55
2023/07/12 09:07:33;;;;;;;10.03;9.50;;;26.60;20.20;;;;;;4946908;28;20206;-55
2023/07/12 09:10:00;;;;;;;8.83;8.43;;;26.60;19.90;;;;;;4956005;28;20423;-54
2023/07/12 09:12:34;;;;;;;9.30;8.70;;;26.70;18.20;;;;;;4956098;28;20469;-55
2023/07/12 09:15:03;;;;;;;9.23;8.63;;;26.80;18.30;;;;;;4955966;28;20505;-51
2023/07/12 09:17:35;;;;;;;8.90;8.50;;;26.80;17.40;;;;;;4955929;28;20835;-55
2023/07/12 09:20:02;;;;;;;9.27;8.60;;;26.80;17.80;;;;;;4955800;28;20475;-55
2023/07/12 09:22:29;;;;;;;7.93;7.63;;;26.90;17.40;;;;;;4955992;28;20922;-52
2023/07/12 09:24:56;;;;;;;8.37;7.97;;;27.00;17.50;;;;;;4955791;28;20462;-55
2023/07/12 09:27:25;;;;;;;8.80;8.20;;;27.20;17.60;;;;;;4955962;28;20938;-54
2023/07/12 09:30:04;;;;;;;8.17;7.80;;;27.20;17.60;;;;;;4955135;28;20421;-55
2023/07/12 09:32:33;;;;;;;8.03;7.63;;;27.30;17.30;;;;;;4951876;29;20915;-52
2023/07/12 09:35:00;;;;;;;8.57;8.07;;;27.30;17.50;;;;;;4936004;29;20425;-56
2023/07/12 09:37:26;;;;;;;8.57;8.10;;;27.30;17.30;;;;;;4936059;29;20557;-50
2023/07/12 09:39:56;;;;;;;8.00;7.37;;;27.40;16.90;;;;;;4936127;29;20510;-54
2023/07/12 09:42:22;;;;;;;8.30;7.90;;;27.30;16.30;;;;;;4936578;29;20183;-56
2023/07/12 09:44:48;;;;;;;9.50;8.70;;;27.30;17.10;;;;;;4936062;29;20537;-54
2023/07/12 09:47:34;;;;;;;13.87;9.03;;;27.50;16.90;;;;;;4936266;29;20422;-55
2023/07/12 09:50:09;;;;;;;8.50;8.10;;;27.50;16.60;;;;;;4935489;29;20419;-54
2023/07/12 09:52:52;;;;;;;8.30;7.70;;;27.60;16.20;;;;;;4935958;29;20517;-53
2023/07/12 09:55:52;;;;;;;9.20;8.47;;;27.70;15.20;;;;;;4936171;29;20434;-53
2023/07/12 09:58:39;;;;;;;8.10;7.30;;;27.90;14.70;;;;;;4928730;29;20426;-53
2023/07/12 10:01:27;;;;;;;8.73;8.13;;;28.10;14.30;;;;;;4935801;29;20423;-55
2023/07/12 10:03:56;;;;;;;8.40;8.00;;;28.10;14.40;;;;;;4935511;29;20478;-52
2023/07/12 10:06:44;;;;;;;9.13;8.53;;;28.40;13.90;;;;;;4951871;29;20412;-53
2023/07/12 10:09:29;;;;;;;9.23;8.50;;;28.60;14.00;;;;;;4937456;28;20414;-52
2023/07/12 10:12:06;;;;;;;9.10;8.60;;;28.80;15.10;;;;;;4959051;28;20410;-54
2023/07/12 10:14:41;;;;;;;8.97;8.40;;;28.80;13.10;;;;;;4959220;28;20780;-53
2023/07/12 10:17:17;;;;;;;8.67;8.27;;;28.70;13.20;;;;;;4975464;28;20417;-55
2023/07/12 10:19:47;;;;;;;8.43;8.03;;;28.80;12.80;;;;;;4975041;28;20945;-56
2023/07/12 10:22:19;;;;;;;11.03;10.00;;;28.70;13.60;;;;;;4959467;28;20930;-53
2023/07/12 10:24:50;;;;;;;8.83;8.33;;;28.60;11.90;;;;;;4975231;28;20461;-53
2023/07/12 10:27:22;;;;;;;8.70;8.20;;;28.40;13.20;;;;;;4959307;28;20494;-50
2023/07/12 10:30:15;;;;;;;8.70;8.20;;;28.30;13.30;;;;;;4958985;28;20427;-55
2023/07/12 10:32:53;;;;;;;9.20;8.60;;;28.40;13.00;;;;;;4959226;28;20460;-55
2023/07/12 10:35:30;;;;;;;8.33;7.90;;;28.60;13.10;;;;;;4959106;28;20926;-54
2023/07/12 10:37:58;;;;;;;9.20;8.60;;;28.90;12.30;;;;;;4974932;28;20417;-51
2023/07/12 10:40:30;;;;;;;8.93;8.30;;;28.90;11.30;;;;;;4958882;28;20512;-50
2023/07/12 10:43:02;;;;;;;8.13;7.73;;;28.90;11.20;;;;;;4958942;28;20780;-49
2023/07/12 10:45:33;;;;;;;8.23;7.83;;;29.00;11.90;;;;;;4958802;28;20927;-49
2023/07/12 10:48:00;;;;;;;8.03;7.53;;;28.90;12.10;;;;;;4958845;28;20895;-46
2023/07/12 10:50:32;;;;;;;9.20;8.80;;;28.80;12.00;;;;;;4958747;28;20949;-49
2023/07/12 10:53:22;;;;;;;8.97;8.37;;;28.90;12.00;;;;;;4974770;28;20782;-51
2023/07/12 10:56:11;;;;;;;8.80;8.30;;;28.90;12.00;;;;;;4958511;28;20422;-45
2023/07/12 10:58:49;;;;;;;9.73;9.13;;;28.90;11.60;;;;;;4958482;28;20441;-48
2023/07/12 11:01:40;;;;;;;8.70;8.30;;;28.80;11.60;;;;;;4957669;28;20429;-48
2023/07/12 11:04:10;;;;;;;10.40;9.80;;;28.80;12.10;;;;;;4938993;29;20558;-49
2023/07/12 11:06:40;;;;;;;9.37;8.67;;;28.80;12.00;;;;;;4955266;29;20924;-50
2023/07/12 11:09:10;;;;;;;8.97;8.47;;;28.80;11.70;;;;;;4938777;29;20786;-47
2023/07/12 11:11:43;;;;;;;8.83;8.33;;;28.60;11.70;;;;;;4948047;28;20743;-48
2023/07/12 11:14:14;;;;;;;8.70;8.30;;;28.60;11.70;;;;;;4957943;28;20419;-47
2023/07/12 11:16:51;;;;;;;10.87;10.17;;;28.80;11.40;;;;;;4966148;28;20477;-47
2023/07/12 11:19:42;;;;;;;9.37;8.87;;;28.50;11.20;;;;;;4958531;28;20947;-45
2023/07/12 11:22:54;;;;;;;10.63;10.03;;;28.70;11.00;;;;;;4938681;29;20441;-47
2023/07/12 11:25:31;;;;;;;9.93;9.43;;;28.70;11.30;;;;;;4939125;29;20493;-53
2023/07/12 11:28:00;;;;;;;9.73;9.10;;;28.80;10.90;;;;;;4954668;29;20419;-55
2023/07/12 11:30:35;;;;;;;9.77;9.17;;;28.90;11.20;;;;;;4943982;28;20418;-54
2023/07/12 11:33:16;;;;;;;9.07;8.67;;;28.90;10.40;;;;;;4973574;28;20449;-53
2023/07/12 11:35:51;;;;;;;8.70;8.30;;;28.80;9.80;;;;;;4973969;28;20414;-50
2023/07/12 11:38:24;;;;;;;9.63;9.03;;;28.70;11.00;;;;;;4957508;28;20424;-52
2023/07/12 11:40:53;;;;;;;10.67;9.80;;;28.70;11.20;;;;;;4968434;28;20431;-54
2023/07/12 11:43:34;;;;;;;9.27;8.63;;;28.60;10.40;;;;;;4954755;29;20423;-51
2023/07/12 11:46:02;;;;;;;9.17;8.67;;;28.50;10.70;;;;;;4963074;28;20521;-50
2023/07/12 11:48:33;;;;;;;9.53;9.00;;;28.40;11.00;;;;;;4938461;29;20423;-50
2023/07/12 11:51:03;;;;;;;9.90;9.40;;;28.30;10.60;;;;;;4938898;29;20427;-43
2023/07/12 11:53:29;;;;;;;9.70;9.20;;;28.40;10.90;;;;;;4938494;29;20422;-45
2023/07/12 11:55:55;;;;;;;9.87;9.17;;;28.40;10.70;;;;;;4954533;29;20427;-49
2023/07/12 11:58:24;;;;;;;9.60;9.10;;;28.40;10.50;;;;;;4938267;29;20269;-45
2023/07/12 12:00:51;;;;;;;9.03;8.63;;;28.40;10.90;;;;;;4938299;29;20795;-47
2023/07/12 12:03:18;;;;;;;9.27;8.77;;;28.50;10.10;;;;;;4938342;29;20430;-50
2023/07/12 12:05:44;;;;;;;9.27;8.77;;;28.60;8.60;;;;;;4938297;29;20900;-48
2023/07/12 12:08:34;;;;;;;9.50;9.00;;;28.60;8.60;;;;;;4937956;29;20754;-45
2023/07/12 12:11:00;;;;;;;9.13;8.47;;;28.70;8.70;;;;;;4938135;29;20419;-48
2023/07/12 12:13:30;;;;;;;9.30;8.77;;;28.80;9.00;;;;;;4938249;29;20531;-45
2023/07/12 12:16:20;;;;;;;8.90;8.30;;;28.90;9.40;;;;;;4938064;29;20206;-48
2023/07/12 12:18:59;;;;;;;8.47;7.93;;;29.00;9.80;;;;;;4937713;29;20464;-47
2023/07/12 12:21:26;;;;;;;9.13;8.43;;;28.90;10.40;;;;;;4937999;29;20928;-49
2023/07/12 12:23:57;;;;;;;7.87;7.37;;;29.10;9.70;;;;;;4937745;29;20509;-49
2023/07/12 12:26:39;;;;;;;9.10;8.50;;;29.20;9.10;;;;;;4938215;29;20470;-46
2023/07/12 12:29:13;;;;;;;9.30;8.80;;;29.10;11.00;;;;;;4937574;29;20787;-44
2023/07/12 12:31:49;;;;;;;11.60;9.00;;;28.90;11.40;;;;;;4937734;29;20438;-43
2023/07/12 12:34:17;;;;;;;9.57;9.07;;;28.80;11.30;;;;;;4937722;29;20506;-44
2023/07/12 12:37:01;;;;;;;9.60;8.83;;;28.60;11.60;;;;;;4948779;28;20430;-47
2023/07/12 12:39:27;;;;;;;8.80;8.20;;;28.50;10.90;;;;;;4971083;28;20414;-48
2023/07/12 12:41:59;;;;;;;9.30;8.80;;;28.60;7.30;;;;;;4972537;28;20406;-47
2023/07/12 12:44:38;;;;;;;10.03;9.33;;;28.80;7.50;;;;;;4971193;28;20556;-53
2023/07/12 12:47:17;;;;;;;8.60;8.20;;;28.90;9.60;;;;;;4971137;28;20972;-49
2023/07/12 12:49:43;;;;;;;9.30;8.60;;;28.80;10.60;;;;;;4971111;28;20923;-51